La rose des vents
Donnes mto: Semaine 15/02/21 - 21/02/21 (S 7)
Date Horaire Temp. E. Hum. E. P.atmo. Pluie Vent 1mn Direction Ensoleilleme Ev.Tr. Solaire P. de rose Temp au vent Rafales
15/02/2021 00:00 2,1 C 67 % 1038,3 hPa 0,0 l/m 1,0 km/h (0 Bft) O-NO 0,00 h 0,025 mm 0 W/m -3,3 C 2,1 C 2,5 km/h (1 Bft)
15/02/2021 01:00 2,1 C 66 % 1038,4 hPa 0,0 l/m 0,2 km/h (0 Bft) O-NO 0,00 h 0,025 mm 0 W/m -3,6 C 2,1 C 1,3 km/h (1 Bft)
15/02/2021 02:00 2,2 C 65 % 1038,4 hPa 0,0 l/m 0,5 km/h (0 Bft) O-NO 0,00 h 0,025 mm 0 W/m -3,7 C 2,2 C 2,1 km/h (1 Bft)
15/02/2021 03:00 2,1 C 65 % 1038,2 hPa 0,0 l/m 0,7 km/h (0 Bft) O-NO 0,00 h 0,025 mm 0 W/m -3,7 C 2,1 C 2,7 km/h (1 Bft)
15/02/2021 04:00 1,9 C 66 % 1037,8 hPa 0,0 l/m 1,3 km/h (1 Bft) O-NO 0,00 h 0,025 mm 0 W/m -3,8 C 1,9 C 3,3 km/h (1 Bft)
15/02/2021 05:00 1,9 C 66 % 1037,8 hPa 0,0 l/m 2,0 km/h (1 Bft) O-NO 0,00 h 0,025 mm 0 W/m -3,8 C 1,8 C 4,4 km/h (1 Bft)
15/02/2021 06:00 2,1 C 65 % 1037,5 hPa 0,0 l/m 3,1 km/h (1 Bft) NO 0,00 h 0,025 mm 0 W/m -3,8 C 1,9 C 6,0 km/h (2 Bft)
15/02/2021 07:00 1,9 C 67 % 1037,6 hPa 0,0 l/m 2,3 km/h (1 Bft) NO 0,33 h 0,025 mm 25 W/m -3,5 C 1,9 C 4,9 km/h (1 Bft)
15/02/2021 08:00 3,2 C 66 % 1037,9 hPa 0,0 l/m 0,5 km/h (0 Bft) NO 1,00 h 0,025 mm 142 W/m -2,6 C 3,2 C 2,1 km/h (1 Bft)
15/02/2021 09:00 5,9 C 61 % 1038,2 hPa 0,0 l/m 0,0 km/h (0 Bft) N 1,00 h 0,051 mm 288 W/m -1,1 C 5,9 C 0,0 km/h (0 Bft)
15/02/2021 10:00 8,9 C 51 % 1038,3 hPa 0,0 l/m 1,9 km/h (1 Bft) O-SO 0,92 h 0,127 mm 395 W/m -0,8 C 8,8 C 4,4 km/h (1 Bft)
15/02/2021 11:00 9,8 C 47 % 1038,0 hPa 0,0 l/m 4,0 km/h (1 Bft) S 0,80 h 0,178 mm 530 W/m -0,9 C 9,7 C 7,6 km/h (2 Bft)
15/02/2021 12:00 9,1 C 49 % 1037,7 hPa 0,0 l/m 2,8 km/h (1 Bft) S 0,18 h 0,254 mm 274 W/m -1,0 C 8,9 C 6,0 km/h (2 Bft)
15/02/2021 13:00 8,5 C 56 % 1037,2 hPa 0,0 l/m 5,7 km/h (1 Bft) S 0,00 h 0,152 mm 219 W/m 0,3 C 7,8 C 9,3 km/h (2 Bft)
15/02/2021 14:00 8,3 C 57 % 1036,5 hPa 0,0 l/m 6,1 km/h (2 Bft) S-SE 0,07 h 0,127 mm 230 W/m 0,4 C 7,6 C 10,3 km/h (2 Bft)
15/02/2021 15:00 9,1 C 55 % 1036,0 hPa 0,0 l/m 5,4 km/h (1 Bft) S-SE 0,70 h 0,127 mm 330 W/m 0,5 C 8,6 C 9,9 km/h (2 Bft)
15/02/2021 16:00 9,0 C 55 % 1035,7 hPa 0,0 l/m 7,1 km/h (2 Bft) S-SO 0,82 h 0,178 mm 183 W/m 0,5 C 8,0 C 11,5 km/h (2 Bft)
15/02/2021 17:00 7,6 C 60 % 1035,3 hPa 0,0 l/m 4,6 km/h (1 Bft) S-SO 0,18 h 0,127 mm 36 W/m 0,4 C 7,0 C 7,6 km/h (2 Bft)
15/02/2021 18:00 6,0 C 65 % 1035,0 hPa 0,0 l/m 3,1 km/h (1 Bft) S-SO 0,00 h 0,025 mm 5 W/m -0,0 C 5,8 C 6,2 km/h (2 Bft)
15/02/2021 19:00 5,2 C 68 % 1034,7 hPa 0,0 l/m 1,4 km/h (1 Bft) SO 0,00 h 0,025 mm 0 W/m -0,2 C 5,2 C 3,1 km/h (1 Bft)
15/02/2021 20:00 4,7 C 69 % 1034,1 hPa 0,0 l/m 1,0 km/h (0 Bft) SO 0,00 h 0,025 mm 0 W/m -0,5 C 4,7 C 2,4 km/h (1 Bft)
15/02/2021 21:00 4,3 C 71 % 1033,7 hPa 0,0 l/m 0,1 km/h (0 Bft) SO 0,00 h 0,025 mm 0 W/m -0,5 C 4,3 C 0,5 km/h (0 Bft)
15/02/2021 22:00 3,5 C 74 % 1033,3 hPa 0,0 l/m 0,0 km/h (0 Bft) N 0,00 h 0,025 mm 0 W/m -0,7 C 3,5 C 0,0 km/h (0 Bft)
15/02/2021 23:00 3,0 C 77 % 1032,4 hPa 0,0 l/m 0,1 km/h (0 Bft) SO 0,00 h 0,025 mm 0 W/m -0,6 C 3,0 C 0,3 km/h (0 Bft)
16/02/2021 00:00 3,1 C 77 % 1031,9 hPa 0,0 l/m 0,9 km/h (0 Bft) SO 0,00 h 0,025 mm 0 W/m -0,5 C 3,1 C 1,7 km/h (1 Bft)
16/02/2021 01:00 3,3 C 76 % 1031,4 hPa 0,0 l/m 0,0 km/h (0 Bft) SO 0,00 h 0,025 mm 0 W/m -0,5 C 3,3 C 0,5 km/h (0 Bft)
16/02/2021 02:00 3,2 C 76 % 1030,6 hPa 0,0 l/m 0,1 km/h (0 Bft) SO 0,00 h 0,025 mm 0 W/m -0,6 C 3,2 C 0,5 km/h (0 Bft)
16/02/2021 03:00 2,9 C 77 % 1029,7 hPa 0,0 l/m 0,2 km/h (0 Bft) SO 0,00 h 0,025 mm 0 W/m -0,7 C 2,9 C 0,9 km/h (0 Bft)
16/02/2021 04:00 3,0 C 76 % 1029,0 hPa 0,0 l/m 0,0 km/h (0 Bft) N 0,00 h 0,025 mm 0 W/m -0,8 C 3,0 C 0,3 km/h (0 Bft)
16/02/2021 05:00 3,0 C 75 % 1028,5 hPa 0,0 l/m 0,1 km/h (0 Bft) SO 0,00 h 0,025 mm 0 W/m -1,0 C 3,0 C 1,0 km/h (0 Bft)
16/02/2021 06:00 3,1 C 74 % 1027,9 hPa 0,0 l/m 0,0 km/h (0 Bft) N 0,00 h 0,025 mm 0 W/m -1,0 C 3,1 C 0,0 km/h (0 Bft)
16/02/2021 07:00 3,3 C 74 % 1027,8 hPa 0,0 l/m 0,0 km/h (0 Bft) N 0,17 h 0,025 mm 16 W/m -0,8 C 3,3 C 0,0 km/h (0 Bft)
16/02/2021 08:00 4,4 C 74 % 1027,7 hPa 0,0 l/m 0,0 km/h (0 Bft) N 0,83 h 0,000 mm 114 W/m 0,2 C 4,4 C 0,0 km/h (0 Bft)
16/02/2021 09:00 7,9 C 68 % 1027,6 hPa 0,0 l/m 0,0 km/h (0 Bft) N 0,88 h 0,051 mm 257 W/m 2,2 C 7,9 C 0,0 km/h (0 Bft)
16/02/2021 10:00 10,7 C 64 % 1027,0 hPa 0,0 l/m 0,0 km/h (0 Bft) N 1,00 h 0,127 mm 403 W/m 4,2 C 10,7 C 0,0 km/h (0 Bft)
16/02/2021 11:00 12,3 C 64 % 1026,5 hPa 0,0 l/m 0,4 km/h (0 Bft) S-SO 1,00 h 0,203 mm 511 W/m 5,7 C 12,3 C 1,3 km/h (1 Bft)
16/02/2021 12:00 13,7 C 65 % 1025,9 hPa 0,0 l/m 0,3 km/h (0 Bft) S-SO 0,45 h 0,254 mm 346 W/m 7,3 C 13,7 C 1,1 km/h (1 Bft)
16/02/2021 13:00 13,4 C 68 % 1025,0 hPa 0,0 l/m 2,9 km/h (1 Bft) SO 0,67 h 0,178 mm 359 W/m 7,6 C 13,4 C 6,3 km/h (2 Bft)
16/02/2021 14:00 14,3 C 66 % 1024,2 hPa 0,0 l/m 7,8 km/h (2 Bft) S-SO 1,00 h 0,203 mm 435 W/m 8,0 C 14,3 C 17,0 km/h (3 Bft)
16/02/2021 15:00 14,3 C 66 % 1023,5 hPa 0,0 l/m 6,9 km/h (2 Bft) S-SO 1,00 h 0,254 mm 342 W/m 8,1 C 14,3 C 15,6 km/h (3 Bft)
16/02/2021 16:00 13,4 C 70 % 1023,2 hPa 0,0 l/m 7,6 km/h (2 Bft) S-SO 0,85 h 0,203 mm 194 W/m 7,9 C 13,4 C 15,9 km/h (3 Bft)
16/02/2021 17:00 11,9 C 75 % 1023,1 hPa 0,0 l/m 6,9 km/h (2 Bft) S-SO 0,53 h 0,127 mm 52 W/m 7,5 C 11,9 C 13,9 km/h (3 Bft)
16/02/2021 18:00 10,5 C 79 % 1023,2 hPa 0,0 l/m 4,7 km/h (1 Bft) S-SO 0,00 h 0,051 mm 6 W/m 7,0 C 10,4 C 9,5 km/h (2 Bft)
16/02/2021 19:00 9,5 C 83 % 1023,3 hPa 0,0 l/m 4,4 km/h (1 Bft) SO 0,00 h 0,025 mm 0 W/m 6,7 C 9,3 C 9,1 km/h (2 Bft)
16/02/2021 20:00 8,7 C 85 % 1023,2 hPa 0,0 l/m 1,5 km/h (1 Bft) O-SO 0,00 h 0,025 mm 0 W/m 6,3 C 8,7 C 4,0 km/h (1 Bft)
16/02/2021 21:00 8,1 C 86 % 1022,9 hPa 0,0 l/m 0,3 km/h (0 Bft) O 0,00 h 0,000 mm 0 W/m 5,9 C 8,1 C 1,1 km/h (1 Bft)
16/02/2021 22:00 7,8 C 87 % 1022,8 hPa 0,0 l/m 0,7 km/h (0 Bft) O 0,00 h 0,000 mm 0 W/m 5,8 C 7,7 C 2,1 km/h (1 Bft)
16/02/2021 23:00 7,2 C 89 % 1022,4 hPa 0,0 l/m 0,1 km/h (0 Bft) O 0,00 h 0,000 mm 0 W/m 5,4 C 7,2 C 0,4 km/h (0 Bft)
17/02/2021 00:00 6,6 C 90 % 1021,9 hPa 0,0 l/m 0,0 km/h (0 Bft) N 0,00 h 0,000 mm 0 W/m 5,1 C 6,6 C 0,0 km/h (0 Bft)
17/02/2021 01:00 6,3 C 92 % 1021,3 hPa 0,0 l/m 0,2 km/h (0 Bft) O 0,00 h 0,000 mm 0 W/m 5,1 C 6,3 C 0,5 km/h (0 Bft)
17/02/2021 02:00 6,2 C 92 % 1020,9 hPa 0,0 l/m 0,0 km/h (0 Bft) N 0,00 h 0,000 mm 0 W/m 5,1 C 6,2 C 0,0 km/h (0 Bft)
17/02/2021 03:00 6,5 C 91 % 1020,5 hPa 0,0 l/m 0,0 km/h (0 Bft) N 0,00 h 0,000 mm 0 W/m 5,2 C 6,5 C 0,0 km/h (0 Bft)
17/02/2021 04:00 6,2 C 91 % 1020,2 hPa 0,0 l/m 0,0 km/h (0 Bft) N 0,00 h 0,000 mm 0 W/m 4,9 C 6,2 C 0,0 km/h (0 Bft)
17/02/2021 05:00 6,1 C 90 % 1020,0 hPa 0,0 l/m 0,0 km/h (0 Bft) N 0,00 h 0,000 mm 0 W/m 4,6 C 6,1 C 0,0 km/h (0 Bft)
17/02/2021 06:00 5,7 C 91 % 1019,7 hPa 0,0 l/m 0,1 km/h (0 Bft) O 0,00 h 0,000 mm 0 W/m 4,4 C 5,7 C 0,3 km/h (0 Bft)
17/02/2021 07:00 5,5 C 92 % 1019,7 hPa 0,0 l/m 0,0 km/h (0 Bft) N 0,05 h 0,000 mm 14 W/m 4,3 C 5,5 C 0,0 km/h (0 Bft)
17/02/2021 08:00 6,2 C 93 % 1020,3 hPa 0,0 l/m 0,0 km/h (0 Bft) N 0,70 h 0,000 mm 112 W/m 5,1 C 6,2 C 0,0 km/h (0 Bft)
17/02/2021 09:00 10,0 C 85 % 1020,4 hPa 0,0 l/m 0,0 km/h (0 Bft) N 1,00 h 0,051 mm 280 W/m 7,6 C 10,0 C 0,0 km/h (0 Bft)
17/02/2021 10:00 13,3 C 74 % 1020,6 hPa 0,0 l/m 0,1 km/h (0 Bft) E 1,00 h 0,127 mm 420 W/m 8,8 C 13,3 C 0,5 km/h (0 Bft)
17/02/2021 11:00 14,7 C 70 % 1020,9 hPa 0,0 l/m 0,2 km/h (0 Bft) E 0,68 h 0,203 mm 431 W/m 9,3 C 14,7 C 1,3 km/h (1 Bft)
17/02/2021 12:00 13,8 C 76 % 1020,9 hPa 0,0 l/m 0,5 km/h (0 Bft) E 0,05 h 0,229 mm 233 W/m 9,6 C 13,8 C 2,4 km/h (1 Bft)
17/02/2021 13:00 14,1 C 76 % 1020,6 hPa 0,0 l/m 1,7 km/h (1 Bft) E 0,73 h 0,127 mm 467 W/m 10,1 C 14,1 C 5,1 km/h (1 Bft)
17/02/2021 14:00 13,4 C 78 % 1020,3 hPa 0,0 l/m 0,9 km/h (0 Bft) E-SE 0,00 h 0,254 mm 169 W/m 9,5 C 13,4 C 3,9 km/h (1 Bft)
17/02/2021 15:00 13,0 C 80 % 1020,1 hPa 0,0 l/m 0,9 km/h (0 Bft) E 0,43 h 0,102 mm 225 W/m 9,7 C 13,0 C 4,2 km/h (1 Bft)
17/02/2021 16:00 12,7 C 81 % 1020,4 hPa 0,0 l/m 0,2 km/h (0 Bft) E 0,00 h 0,102 mm 86 W/m 9,5 C 12,7 C 1,0 km/h (0 Bft)
17/02/2021 17:00 11,8 C 84 % 1020,6 hPa 0,0 l/m 0,0 km/h (0 Bft) N 0,00 h 0,051 mm 32 W/m 9,1 C 11,8 C 0,0 km/h (0 Bft)
17/02/2021 18:00 11,0 C 86 % 1021,0 hPa 0,0 l/m 0,0 km/h (0 Bft) N 0,00 h 0,025 mm 0 W/m 8,7 C 11,0 C 0,0 km/h (0 Bft)
17/02/2021 19:00 10,7 C 87 % 1021,3 hPa 0,0 l/m 0,0 km/h (0 Bft) N 0,00 h 0,000 mm 0 W/m 8,7 C 10,7 C 0,1 km/h (0 Bft)
17/02/2021 20:00 10,4 C 87 % 1021,3 hPa 0,0 l/m 0,0 km/h (0 Bft) N 0,00 h 0,000 mm 0 W/m 8,4 C 10,4 C 0,2 km/h (0 Bft)
17/02/2021 21:00 10,3 C 86 % 1021,5 hPa 0,0 l/m 0,0 km/h (0 Bft) N 0,00 h 0,000 mm 0 W/m 8,2 C 10,3 C 0,0 km/h (0 Bft)
17/02/2021 22:00 10,0 C 87 % 1021,7 hPa 0,0 l/m 0,0 km/h (0 Bft) N 0,00 h 0,000 mm 0 W/m 7,9 C 10,0 C 0,5 km/h (0 Bft)
17/02/2021 23:00 9,3 C 88 % 1021,8 hPa 0,0 l/m 0,0 km/h (0 Bft) N 0,00 h 0,000 mm 0 W/m 7,3 C 9,3 C 0,5 km/h (0 Bft)
18/02/2021 00:00 9,0 C 87 % 1022,1 hPa 0,0 l/m 0,0 km/h (0 Bft) N 0,00 h 0,000 mm 0 W/m 7,0 C 9,0 C 0,7 km/h (0 Bft)
18/02/2021 01:00 8,6 C 87 % 1022,3 hPa 0,0 l/m 0,0 km/h (0 Bft) N 0,00 h 0,000 mm 0 W/m 6,6 C 8,6 C 0,3 km/h (0 Bft)
18/02/2021 02:00 8,8 C 86 % 1022,0 hPa 0,0 l/m 0,0 km/h (0 Bft) N 0,00 h 0,000 mm 0 W/m 6,7 C 8,8 C 0,1 km/h (0 Bft)
18/02/2021 03:00 9,0 C 85 % 1021,9 hPa 0,0 l/m 0,0 km/h (0 Bft) N 0,00 h 0,000 mm 0 W/m 6,7 C 9,0 C 0,0 km/h (0 Bft)
18/02/2021 04:00 8,8 C 85 % 1021,8 hPa 0,0 l/m 0,0 km/h (0 Bft) N 0,00 h 0,000 mm 0 W/m 6,5 C 8,8 C 0,0 km/h (0 Bft)
18/02/2021 05:00 8,5 C 87 % 1021,9 hPa 0,0 l/m 0,0 km/h (0 Bft) N 0,00 h 0,000 mm 0 W/m 6,4 C 8,5 C 0,0 km/h (0 Bft)
18/02/2021 06:00 8,6 C 85 % 1021,9 hPa 0,0 l/m 0,0 km/h (0 Bft) N 0,00 h 0,000 mm 0 W/m 6,1 C 8,6 C 0,0 km/h (0 Bft)
18/02/2021 07:00 8,6 C 85 % 1022,1 hPa 0,0 l/m 0,0 km/h (0 Bft) N 0,03 h 0,000 mm 18 W/m 6,3 C 8,6 C 0,0 km/h (0 Bft)
18/02/2021 08:00 8,9 C 84 % 1022,5 hPa 0,0 l/m 0,0 km/h (0 Bft) N 0,18 h 0,000 mm 79 W/m 6,4 C 8,9 C 0,0 km/h (0 Bft)
18/02/2021 09:00 10,2 C 82 % 1022,8 hPa 0,0 l/m 0,0 km/h (0 Bft) N 0,48 h 0,025 mm 186 W/m 7,3 C 10,2 C 0,0 km/h (0 Bft)
18/02/2021 10:00 13,1 C 77 % 1022,9 hPa 0,0 l/m 0,1 km/h (0 Bft) NE 0,58 h 0,076 mm 310 W/m 9,2 C 13,1 C 0,2 km/h (0 Bft)
18/02/2021 11:00 15,6 C 67 % 1022,8 hPa 0,0 l/m 0,3 km/h (0 Bft) E 1,00 h 0,152 mm 501 W/m 9,5 C 15,6 C 1,7 km/h (1 Bft)
18/02/2021 12:00 16,5 C 65 % 1022,5 hPa 0,0 l/m 0,5 km/h (0 Bft) E 1,00 h 0,254 mm 492 W/m 9,9 C 16,5 C 2,4 km/h (1 Bft)
18/02/2021 13:00 16,1 C 68 % 1022,1 hPa 0,0 l/m 1,3 km/h (1 Bft) E-SE 0,73 h 0,279 mm 452 W/m 10,2 C 16,1 C 4,6 km/h (1 Bft)
18/02/2021 14:00 14,7 C 73 % 1021,8 hPa 0,0 l/m 1,2 km/h (1 Bft) SE 0,10 h 0,229 mm 199 W/m 9,8 C 14,7 C 3,8 km/h (1 Bft)
18/02/2021 15:00 13,4 C 79 % 1021,6 hPa 0,0 l/m 0,9 km/h (0 Bft) S-SE 0,00 h 0,102 mm 132 W/m 9,8 C 13,4 C 2,8 km/h (1 Bft)
18/02/2021 16:00 13,6 C 80 % 1021,7 hPa 0,0 l/m 0,5 km/h (0 Bft) S-SE 0,57 h 0,076 mm 176 W/m 10,2 C 13,6 C 1,9 km/h (1 Bft)
18/02/2021 17:00 12,8 C 79 % 1021,8 hPa 0,0 l/m 1,3 km/h (1 Bft) S 0,20 h 0,102 mm 39 W/m 9,3 C 12,8 C 3,4 km/h (1 Bft)
18/02/2021 18:00 11,1 C 86 % 1022,1 hPa 0,0 l/m 0,4 km/h (0 Bft) S 0,00 h 0,025 mm 0 W/m 8,7 C 11,1 C 1,6 km/h (1 Bft)
18/02/2021 19:00 10,4 C 88 % 1022,4 hPa 0,0 l/m 0,0 km/h (0 Bft) N 0,00 h 0,000 mm 0 W/m 8,4 C 10,4 C 0,1 km/h (0 Bft)
18/02/2021 20:00 10,0 C 88 % 1022,5 hPa 0,0 l/m 0,0 km/h (0 Bft) N 0,00 h 0,000 mm 0 W/m 8,2 C 10,0 C 0,0 km/h (0 Bft)
18/02/2021 21:00 10,1 C 90 % 1022,5 hPa 0,0 l/m 0,0 km/h (0 Bft) N 0,00 h 0,000 mm 0 W/m 8,5 C 10,1 C 0,0 km/h (0 Bft)
18/02/2021 22:00 10,2 C 90 % 1022,8 hPa 0,0 l/m 0,0 km/h (0 Bft) N 0,00 h 0,000 mm 0 W/m 8,7 C 10,2 C 0,2 km/h (0 Bft)
18/02/2021 23:00 10,3 C 90 % 1022,8 hPa 0,0 l/m 0,0 km/h (0 Bft) N 0,00 h 0,000 mm 0 W/m 8,7 C 10,3 C 0,0 km/h (0 Bft)
19/02/2021 00:00 10,2 C 90 % 1022,7 hPa 0,0 l/m 0,0 km/h (0 Bft) N 0,00 h 0,000 mm 0 W/m 8,6 C 10,2 C 0,0 km/h (0 Bft)
19/02/2021 01:00 10,1 C 90 % 1022,4 hPa 0,0 l/m 0,0 km/h (0 Bft) N 0,00 h 0,000 mm 0 W/m 8,5 C 10,1 C 0,0 km/h (0 Bft)
19/02/2021 02:00 10,0 C 90 % 1022,4 hPa 0,0 l/m 0,0 km/h (0 Bft) S 0,00 h 0,000 mm 0 W/m 8,5 C 10,0 C 0,5 km/h (0 Bft)
19/02/2021 03:00 9,8 C 90 % 1022,3 hPa 0,0 l/m 0,0 km/h (0 Bft) N 0,00 h 0,000 mm 0 W/m 8,2 C 9,8 C 0,0 km/h (0 Bft)
19/02/2021 04:00 9,6 C 89 % 1022,0 hPa 0,0 l/m 0,0 km/h (0 Bft) N 0,00 h 0,000 mm 0 W/m 7,9 C 9,6 C 0,0 km/h (0 Bft)
19/02/2021 05:00 9,2 C 88 % 1022,2 hPa 0,0 l/m 0,0 km/h (0 Bft) N 0,00 h 0,000 mm 0 W/m 7,3 C 9,2 C 0,0 km/h (0 Bft)
19/02/2021 06:00 8,8 C 86 % 1022,6 hPa 0,0 l/m 0,0 km/h (0 Bft) N 0,00 h 0,000 mm 0 W/m 6,5 C 8,8 C 0,0 km/h (0 Bft)
19/02/2021 07:00 8,7 C 84 % 1023,0 hPa 0,0 l/m 0,0 km/h (0 Bft) N 0,05 h 0,000 mm 20 W/m 6,2 C 8,7 C 0,0 km/h (0 Bft)
19/02/2021 08:00 9,1 C 84 % 1023,4 hPa 0,0 l/m 0,0 km/h (0 Bft) N 0,53 h 0,000 mm 122 W/m 6,5 C 9,1 C 0,1 km/h (0 Bft)
19/02/2021 09:00 11,7 C 80 % 1023,6 hPa 0,0 l/m 0,0 km/h (0 Bft) N 0,68 h 0,051 mm 227 W/m 8,5 C 11,7 C 0,0 km/h (0 Bft)
19/02/2021 10:00 14,2 C 71 % 1023,8 hPa 0,0 l/m 0,1 km/h (0 Bft) O 0,97 h 0,102 mm 403 W/m 9,0 C 14,2 C 0,6 km/h (0 Bft)
19/02/2021 11:00 15,9 C 62 % 1023,8 hPa 0,0 l/m 0,3 km/h (0 Bft) S-SO 0,50 h 0,203 mm 390 W/m 8,6 C 15,9 C 1,2 km/h (1 Bft)
19/02/2021 12:00 14,8 C 69 % 1023,7 hPa 0,0 l/m 0,7 km/h (0 Bft) S-SO 0,32 h 0,203 mm 303 W/m 9,1 C 14,8 C 2,5 km/h (1 Bft)
19/02/2021 13:00 15,8 C 71 % 1023,2 hPa 0,0 l/m 3,0 km/h (1 Bft) S 0,73 h 0,178 mm 520 W/m 10,5 C 15,8 C 7,3 km/h (2 Bft)
19/02/2021 14:00 14,2 C 78 % 1022,8 hPa 0,0 l/m 1,0 km/h (0 Bft) S 0,00 h 0,279 mm 108 W/m 10,4 C 14,2 C 3,8 km/h (1 Bft)
19/02/2021 15:00 12,8 C 84 % 1022,9 hPa 0,0 l/m 0,5 km/h (0 Bft) E 0,00 h 0,051 mm 53 W/m 10,2 C 12,8 C 2,1 km/h (1 Bft)
19/02/2021 16:00 12,3 C 86 % 1022,8 hPa 0,0 l/m 0,0 km/h (0 Bft) N 0,00 h 0,025 mm 37 W/m 10,0 C 12,3 C 0,1 km/h (0 Bft)
19/02/2021 17:00 12,0 C 87 % 1022,7 hPa 0,0 l/m 0,0 km/h (0 Bft) N 0,00 h 0,025 mm 15 W/m 9,9 C 12,0 C 0,0 km/h (0 Bft)
19/02/2021 18:00 11,6 C 87 % 1022,9 hPa 0,0 l/m 0,0 km/h (0 Bft) N 0,00 h 0,000 mm 0 W/m 9,5 C 11,6 C 0,0 km/h (0 Bft)
19/02/2021 19:00 11,3 C 89 % 1023,4 hPa 0,0 l/m 0,0 km/h (0 Bft) N 0,00 h 0,000 mm 0 W/m 9,5 C 11,3 C 0,0 km/h (0 Bft)
19/02/2021 20:00 11,1 C 91 % 1023,5 hPa 0,0 l/m 0,0 km/h (0 Bft) N 0,00 h 0,000 mm 0 W/m 9,7 C 11,1 C 0,0 km/h (0 Bft)
19/02/2021 21:00 11,0 C 92 % 1023,7 hPa 0,0 l/m 0,0 km/h (0 Bft) N 0,00 h 0,000 mm 0 W/m 9,7 C 11,0 C 0,0 km/h (0 Bft)
19/02/2021 22:00 10,8 C 92 % 1023,8 hPa 0,0 l/m 0,0 km/h (0 Bft) N 0,00 h 0,000 mm 0 W/m 9,5 C 10,8 C 0,0 km/h (0 Bft)
19/02/2021 23:00 10,6 C 93 % 1023,9 hPa 0,0 l/m 0,0 km/h (0 Bft) N 0,00 h 0,000 mm 0 W/m 9,5 C 10,6 C 0,0 km/h (0 Bft)
20/02/2021 00:00 10,4 C 94 % 1023,7 hPa 0,0 l/m 0,0 km/h (0 Bft) N 0,00 h 0,000 mm 0 W/m 9,5 C 10,4 C 0,0 km/h (0 Bft)
20/02/2021 01:00 10,2 C 94 % 1023,7 hPa 0,0 l/m 0,0 km/h (0 Bft) N 0,00 h 0,000 mm 0 W/m 9,3 C 10,2 C 0,0 km/h (0 Bft)
20/02/2021 02:00 9,9 C 94 % 1023,6 hPa 0,0 l/m 0,0 km/h (0 Bft) N 0,00 h 0,000 mm 0 W/m 9,0 C 9,9 C 0,1 km/h (0 Bft)
20/02/2021 03:00 9,3 C 93 % 1023,1 hPa 0,0 l/m 0,0 km/h (0 Bft) N 0,00 h 0,000 mm 0 W/m 8,3 C 9,3 C 0,1 km/h (0 Bft)
20/02/2021 04:00 8,4 C 91 % 1023,0 hPa 0,0 l/m 0,0 km/h (0 Bft) N 0,00 h 0,000 mm 0 W/m 7,1 C 8,4 C 0,0 km/h (0 Bft)
20/02/2021 05:00 8,3 C 88 % 1023,1 hPa 0,0 l/m 0,0 km/h (0 Bft) N 0,00 h 0,000 mm 0 W/m 6,4 C 8,3 C 0,1 km/h (0 Bft)
20/02/2021 06:00 7,8 C 88 % 1023,5 hPa 0,0 l/m 0,0 km/h (0 Bft) N 0,00 h 0,000 mm 0 W/m 6,0 C 7,8 C 0,0 km/h (0 Bft)
20/02/2021 07:00 7,3 C 89 % 1023,7 hPa 0,0 l/m 0,0 km/h (0 Bft) N 0,35 h 0,000 mm 26 W/m 5,6 C 7,3 C 0,0 km/h (0 Bft)
20/02/2021 08:00 8,8 C 86 % 1024,1 hPa 0,0 l/m 0,0 km/h (0 Bft) N 1,00 h 0,000 mm 137 W/m 6,5 C 8,8 C 0,0 km/h (0 Bft)
20/02/2021 09:00 12,1 C 77 % 1024,4 hPa 0,0 l/m 0,0 km/h (0 Bft) N 1,00 h 0,051 mm 298 W/m 8,2 C 12,1 C 0,0 km/h (0 Bft)
20/02/2021 10:00 15,4 C 67 % 1024,7 hPa 0,0 l/m 0,2 km/h (0 Bft) E 1,00 h 0,152 mm 433 W/m 9,4 C 15,4 C 1,0 km/h (0 Bft)
20/02/2021 11:00 17,1 C 61 % 1024,8 hPa 0,0 l/m 1,1 km/h (1 Bft) E 1,00 h 0,229 mm 525 W/m 9,5 C 17,1 C 4,1 km/h (1 Bft)
20/02/2021 12:00 17,0 C 64 % 1024,8 hPa 0,0 l/m 2,2 km/h (1 Bft) E-SE 1,00 h 0,305 mm 567 W/m 10,1 C 17,0 C 6,5 km/h (2 Bft)
20/02/2021 13:00 17,3 C 70 % 1024,4 hPa 0,0 l/m 1,4 km/h (1 Bft) E 0,93 h 0,330 mm 537 W/m 11,8 C 17,3 C 5,0 km/h (1 Bft)
20/02/2021 14:00 16,0 C 78 % 1024,0 hPa 0,0 l/m 1,1 km/h (0 Bft) E 0,32 h 0,305 mm 295 W/m 12,2 C 16,0 C 5,3 km/h (1 Bft)
20/02/2021 15:00 16,1 C 79 % 1023,8 hPa 0,0 l/m 0,6 km/h (0 Bft) E 0,60 h 0,178 mm 305 W/m 12,5 C 16,1 C 3,8 km/h (1 Bft)
20/02/2021 16:00 14,6 C 84 % 1023,9 hPa 0,0 l/m 0,3 km/h (0 Bft) E 0,13 h 0,178 mm 126 W/m 11,9 C 14,6 C 1,6 km/h (1 Bft)
20/02/2021 17:00 13,1 C 87 % 1023,6 hPa 0,0 l/m 0,1 km/h (0 Bft) E 0,05 h 0,076 mm 26 W/m 11,0 C 13,1 C 0,8 km/h (0 Bft)
20/02/2021 18:00 11,8 C 88 % 1023,6 hPa 0,0 l/m 0,0 km/h (0 Bft) N 0,00 h 0,025 mm 7 W/m 9,9 C 11,8 C 0,0 km/h (0 Bft)
20/02/2021 19:00 10,9 C 91 % 1023,7 hPa 0,0 l/m 0,0 km/h (0 Bft) N 0,00 h 0,000 mm 0 W/m 9,4 C 10,9 C 0,0 km/h (0 Bft)
20/02/2021 20:00 10,2 C 93 % 1023,8 hPa 0,0 l/m 0,1 km/h (0 Bft) E 0,00 h 0,000 mm 0 W/m 9,1 C 10,2 C 0,9 km/h (0 Bft)
20/02/2021 21:00 9,5 C 92 % 1024,1 hPa 0,0 l/m 0,0 km/h (0 Bft) N 0,00 h 0,000 mm 0 W/m 8,3 C 9,5 C 0,0 km/h (0 Bft)
20/02/2021 22:00 9,3 C 91 % 1024,0 hPa 0,0 l/m 0,0 km/h (0 Bft) N 0,00 h 0,000 mm 0 W/m 7,9 C 9,3 C 0,1 km/h (0 Bft)
20/02/2021 23:00 9,1 C 89 % 1023,9 hPa 0,0 l/m 0,0 km/h (0 Bft) NO 0,00 h 0,000 mm 0 W/m 7,4 C 9,1 C 0,6 km/h (0 Bft)
21/02/2021 00:00 9,1 C 89 % 1023,9 hPa 0,0 l/m 0,0 km/h (0 Bft) NO 0,00 h 0,000 mm 0 W/m 7,3 C 9,1 C 0,8 km/h (0 Bft)
21/02/2021 01:00 9,3 C 86 % 1023,9 hPa 0,0 l/m 0,2 km/h (0 Bft) N-NO 0,00 h 0,000 mm 0 W/m 7,0 C 9,3 C 1,2 km/h (1 Bft)
21/02/2021 02:00 9,1 C 85 % 1023,6 hPa 0,0 l/m 0,1 km/h (0 Bft) N-NO 0,00 h 0,000 mm 0 W/m 6,7 C 9,1 C 0,4 km/h (0 Bft)
21/02/2021 03:00 8,5 C 85 % 1023,1 hPa 0,0 l/m 0,0 km/h (0 Bft) N 0,00 h 0,000 mm 0 W/m 6,2 C 8,5 C 0,1 km/h (0 Bft)
21/02/2021 04:00 8,2 C 85 % 1022,9 hPa 0,0 l/m 0,1 km/h (0 Bft) N 0,00 h 0,000 mm 0 W/m 5,9 C 8,2 C 0,5 km/h (0 Bft)
21/02/2021 05:00 8,3 C 84 % 1022,8 hPa 0,0 l/m 0,1 km/h (0 Bft) N 0,00 h 0,000 mm 0 W/m 5,7 C 8,3 C 0,8 km/h (0 Bft)
21/02/2021 06:00 8,4 C 81 % 1023,0 hPa 0,0 l/m 0,0 km/h (0 Bft) N 0,00 h 0,000 mm 0 W/m 5,4 C 8,4 C 0,1 km/h (0 Bft)
21/02/2021 07:00 8,1 C 81 % 1023,1 hPa 0,0 l/m 0,0 km/h (0 Bft) N 0,20 h 0,000 mm 26 W/m 5,1 C 8,1 C 0,0 km/h (0 Bft)
21/02/2021 08:00 9,4 C 79 % 1023,1 hPa 0,0 l/m 0,1 km/h (0 Bft) N 1,00 h 0,000 mm 140 W/m 6,0 C 9,4 C 0,2 km/h (0 Bft)
21/02/2021 09:00 12,2 C 72 % 1023,0 hPa 0,0 l/m 0,1 km/h (0 Bft) N 1,00 h 0,076 mm 301 W/m 7,2 C 12,2 C 0,4 km/h (0 Bft)
21/02/2021 10:00 15,0 C 65 % 1023,2 hPa 0,0 l/m 0,8 km/h (0 Bft) E-SE 1,00 h 0,152 mm 436 W/m 8,5 C 15,0 C 3,5 km/h (1 Bft)
21/02/2021 11:00 16,6 C 62 % 1023,2 hPa 0,0 l/m 1,9 km/h (1 Bft) E-SE 1,00 h 0,229 mm 525 W/m 9,2 C 16,6 C 7,7 km/h (2 Bft)
21/02/2021 12:00 16,9 C 64 % 1023,2 hPa 0,0 l/m 2,7 km/h (1 Bft) E 1,00 h 0,305 mm 565 W/m 10,0 C 16,9 C 10,9 km/h (2 Bft)
21/02/2021 13:00 16,6 C 64 % 1022,4 hPa 0,0 l/m 3,9 km/h (1 Bft) E 1,00 h 0,330 mm 550 W/m 9,8 C 16,6 C 13,5 km/h (3 Bft)
21/02/2021 14:00 16,0 C 65 % 1022,1 hPa 0,0 l/m 4,4 km/h (1 Bft) E 1,00 h 0,305 mm 483 W/m 9,5 C 16,0 C 15,9 km/h (3 Bft)
21/02/2021 15:00 15,4 C 71 % 1022,1 hPa 0,0 l/m 2,6 km/h (1 Bft) E 1,00 h 0,279 mm 367 W/m 10,1 C 15,4 C 11,0 km/h (2 Bft)
21/02/2021 16:00 14,6 C 71 % 1021,9 hPa 0,0 l/m 1,5 km/h (1 Bft) E 1,00 h 0,203 mm 218 W/m 9,4 C 14,6 C 7,6 km/h (2 Bft)
21/02/2021 17:00 13,1 C 76 % 1021,7 hPa 0,0 l/m 1,7 km/h (1 Bft) E 0,25 h 0,127 mm 53 W/m 9,0 C 13,1 C 7,6 km/h (2 Bft)
21/02/2021 18:00 11,8 C 81 % 1021,9 hPa 0,0 l/m 1,4 km/h (1 Bft) N-NE 0,00 h 0,025 mm 5 W/m 8,6 C 11,8 C 5,4 km/h (1 Bft)
21/02/2021 19:00 11,4 C 82 % 1022,3 hPa 0,0 l/m 1,0 km/h (0 Bft) N-NE 0,00 h 0,000 mm 0 W/m 8,4 C 11,4 C 4,7 km/h (1 Bft)
21/02/2021 20:00 10,6 C 82 % 1022,2 hPa 0,0 l/m 0,0 km/h (0 Bft) N 0,00 h 0,025 mm 0 W/m 7,7 C 10,6 C 0,2 km/h (0 Bft)
21/02/2021 21:00 9,6 C 83 % 1022,4 hPa 0,0 l/m 0,0 km/h (0 Bft) N 0,00 h 0,025 mm 0 W/m 7,0 C 9,6 C 0,1 km/h (0 Bft)
21/02/2021 22:00 8,9 C 82 % 1022,5 hPa 0,0 l/m 0,0 km/h (0 Bft) N-NE 0,00 h 0,000 mm 0 W/m 6,1 C 8,9 C 0,1 km/h (0 Bft)
21/02/2021 23:00 8,9 C 78 % 1022,5 hPa 0,0 l/m 0,0 km/h (0 Bft) N 0,00 h 0,000 mm 0 W/m 5,4 C 8,9 C 0,1 km/h (0 Bft)
Min-Date _ 15/02/21 15/02/21 17/02/21 - 15/02/21 - - - - 15/02/21 15/02/21 15/02/21
_ Min-Heure 05:08 11:38 06:30 - 00:00 - - - - 06:25 06:18 00:00
Minimum _ 1,7 C 44 % 1019,6 hPa - 0,0 km/h (0 Bft) - - - - -4,0 C 0,4 C 0,0 km/h (0 Bft)
Max-Date _ 20/02/21 17/02/21 15/02/21 15/02/21 16/02/21 - 15/02/21 20/02/21 17/02/21 20/02/21 20/02/21 21/02/21
_ Max-Heure 12:10 08:34 00:45 00:00 13:44 - 07:40 13:00 13:27 15:17 12:10 14:38
Maximum _ 17,7 C 94 % 1038,4 hPa 0,0 l/m 17,7 km/h
SO (3 Bft)
- 0,02 h 0,330 mm 795 W/m 12,9 C 17,7 C 40,2 km/h
E (6 Bft)
Moyenne _ 9,8 C 79 % 1025,1 hPa #0,0 l/m 0,9 km/h (0 Bft) E #44:32 h #11,215 mm 246 W/m 6,2 C 9,8 C 2,4 km/h (1 Bft)
Roquefort les pins